Time;durP1;ratioP1;P1;durP2;ratioP2;P2;SDS_P1;SDS_P2;PMS_P1;PMS_P2;Temp;Humidity;BMP_temperature;BMP_pressure;BME280_temperature;BME280_humidity;BME280_pressure;Samples;Min_cycle;Max_cycle;Signal;HPM_P1;HPM_P2
2022/05/24 00:02:10;;;;;;;36.83;22.75;;;;;;;13.89;86.12;100035.78;5112585;28;20043;-70
2022/05/24 00:04:35;;;;;;;33.70;22.27;;;;;;;13.82;86.10;100031.94;5111352;28;20031;-72
2022/05/24 00:07:01;;;;;;;29.67;20.92;;;;;;;13.78;86.11;100019.59;5106723;28;20395;-68
2022/05/24 00:09:27;;;;;;;35.15;19.70;;;;;;;13.74;86.34;100038.16;5107922;28;20039;-67
2022/05/24 00:11:53;;;;;;;30.55;17.50;;;;;;;13.68;85.12;100027.84;5104387;28;20035;-70
2022/05/24 00:15:19;;;;;;;27.80;17.00;;;;;;;13.66;85.39;100020.78;5112193;28;20486;-64
2022/05/24 00:17:05;;;;;;;24.27;16.30;;;;;;;13.62;85.03;100030.31;5101648;28;20039;-70
2022/05/24 00:19:30;;;;;;;22.70;15.77;;;;;;;13.56;85.14;100018.09;5111423;28;20030;-68
2022/05/24 00:21:56;;;;;;;26.65;16.42;;;;;;;13.49;85.22;100017.84;5110737;28;20028;-66
2022/05/24 00:24:21;;;;;;;28.25;14.20;;;;;;;13.42;85.57;100015.84;5110864;28;20040;-69
2022/05/24 00:26:47;;;;;;;22.02;14.75;;;;;;;13.38;85.54;100031.72;5107851;28;20034;-66
2022/05/24 00:29:12;;;;;;;22.17;14.20;;;;;;;13.35;85.21;100034.72;5112281;28;20046;-71
2022/05/24 00:31:39;;;;;;;24.13;13.73;;;;;;;13.28;85.78;100031.72;5111007;28;20035;-71
2022/05/24 00:34:04;;;;;;;22.27;13.32;;;;;;;13.22;85.54;100037.78;5111870;28;20034;-70
2022/05/24 00:36:30;;;;;;;20.90;13.38;;;;;;;13.18;85.74;100027.28;5112402;28;20032;-71
2022/05/24 00:38:56;;;;;;;17.50;12.52;;;;;;;13.12;85.80;100020.53;5110360;28;20034;-71
2022/05/24 00:41:39;;;;;;;24.67;12.88;;;;;;;13.10;85.49;100013.47;5107582;28;20094;-65
2022/05/24 00:44:32;;;;;;;26.52;13.45;;;;;;;13.02;85.81;100012.38;5106744;28;20490;-66
2022/05/24 00:47:05;;;;;;;21.55;13.30;;;;;;;13.00;85.87;100021.69;5096100;28;20405;-70
2022/05/24 00:49:35;;;;;;;22.05;13.38;;;;;;;12.95;86.22;100024.88;5091615;28;20532;-70
2022/05/24 00:52:12;;;;;;;23.75;11.85;;;;;;;12.94;86.05;100030.50;5103438;28;20118;-66
2022/05/24 00:54:38;;;;;;;21.55;13.27;;;;;;;12.91;86.02;100028.03;5093309;28;20042;-70
2022/05/24 00:57:34;;;;;;;20.58;12.43;;;;;;;12.89;85.86;100035.53;5099718;28;20441;-67
2022/05/24 01:00:08;;;;;;;22.10;11.95;;;;;;;12.80;86.17;100023.63;5099150;28;20401;-71
2022/05/24 01:02:36;;;;;;;21.15;11.93;;;;;;;12.80;85.86;100020.03;5107263;28;20034;-71
2022/05/24 01:05:06;;;;;;;21.17;11.18;;;;;;;12.73;85.88;100026.06;5102396;28;20032;-71
2022/05/24 01:07:33;;;;;;;24.15;11.57;;;;;;;12.67;85.79;100021.19;5107962;28;20038;-71
2022/05/24 01:10:09;;;;;;;18.48;10.13;;;;;;;12.63;85.72;100014.28;5111669;28;20398;-72
2022/05/24 01:12:43;;;;;;;18.52;10.30;;;;;;;12.59;85.43;100022.91;5109304;28;20040;-71
2022/05/24 01:15:11;;;;;;;20.75;9.52;;;;;;;12.53;85.81;100016.16;5105131;28;20067;-66
2022/05/24 01:17:37;;;;;;;23.10;10.10;;;;;;;12.50;85.49;100014.59;5109212;28;20088;-71
2022/05/24 01:20:04;;;;;;;20.48;10.13;;;;;;;12.47;85.54;100019.47;5105933;28;20027;-69
2022/05/24 01:23:09;;;;;;;18.67;10.32;;;;;;;12.42;86.07;100013.59;5097432;28;20092;-66
2022/05/24 01:26:14;;;;;;;15.23;9.52;;;;;;;12.35;85.75;100007.81;5093103;28;20031;-70
2022/05/24 01:28:50;;;;;;;21.98;9.57;;;;;;;12.34;85.49;100025.19;5087870;28;20044;-70
2022/05/24 01:31:16;;;;;;;15.75;8.75;;;;;;;12.34;85.42;100046.16;5094263;28;20043;-69
2022/05/24 01:36:29;;;;;;;14.60;7.95;;;;;;;12.30;85.37;100040.13;5094352;28;20119;-70
2022/05/24 01:39:00;;;;;;;16.70;7.78;;;;;;;12.27;85.64;100034.13;5092371;28;20039;-71
2022/05/24 01:41:40;;;;;;;19.95;8.25;;;;;;;12.24;85.31;100032.53;5103804;28;20031;-70
2022/05/24 01:44:06;;;;;;;16.75;8.18;;;;;;;12.23;85.33;100047.16;5109129;28;20076;-71
2022/05/24 01:46:38;;;;;;;12.68;7.60;;;;;;;12.20;85.73;100042.00;5094906;27;20509;-67
2022/05/24 01:49:20;;;;;;;10.85;7.20;;;;;;;12.15;85.46;100039.69;5089830;28;20043;-70
2022/05/24 01:51:53;;;;;;;13.95;7.53;;;;;;;12.13;85.49;100044.44;5104180;28;20031;-71
2022/05/24 01:54:19;;;;;;;13.75;6.80;;;;;;;12.11;85.10;100040.09;5125758;27;20031;-66
2022/05/24 01:57:00;;;;;;;12.30;6.43;;;;;;;12.11;84.69;100042.84;5104765;28;20375;-70
2022/05/24 01:59:27;;;;;;;14.30;6.30;;;;;;;12.09;84.34;100042.97;5110928;28;20046;-66
2022/05/24 02:01:58;;;;;;;11.93;6.57;;;;;;;12.09;84.89;100033.94;5109713;28;20039;-66
2022/05/24 02:04:26;;;;;;;12.20;6.15;;;;;;;12.06;84.85;100035.06;5107422;28;20500;-67
2022/05/24 02:07:11;;;;;;;9.60;5.45;;;;;;;12.01;84.24;100023.72;5109150;28;20031;-70
2022/05/24 02:09:42;;;;;;;10.10;5.65;;;;;;;11.97;84.00;100022.28;5109470;28;20023;-70
2022/05/24 02:12:16;;;;;;;11.38;5.35;;;;;;;11.92;84.85;100028.16;5107272;28;20035;-66
2022/05/24 02:14:50;;;;;;;10.05;5.28;;;;;;;11.89;84.77;100030.28;5108796;28;20393;-65
2022/05/24 02:17:20;;;;;;;9.57;5.38;;;;;;;11.85;85.04;100037.06;5109460;28;20893;-66
2022/05/24 02:19:50;;;;;;;8.80;5.03;;;;;;;11.82;85.13;100043.63;5108845;28;20031;-66
2022/05/24 02:22:20;;;;;;;8.88;4.82;;;;;;;11.80;85.02;100034.72;5110159;28;20483;-67
2022/05/24 02:24:52;;;;;;;8.93;4.80;;;;;;;11.83;85.15;100042.63;5109338;28;20035;-71
2022/05/24 02:27:18;;;;;;;13.65;4.65;;;;;;;11.83;84.74;100048.06;5105954;28;20035;-70
2022/05/24 02:29:43;;;;;;;14.18;4.20;;;;;;;11.84;84.65;100046.22;5110119;28;20043;-67
2022/05/24 02:32:08;;;;;;;12.30;4.18;;;;;;;11.87;84.50;100040.50;5108890;28;20046;-66
2022/05/24 02:34:34;;;;;;;14.13;4.20;;;;;;;11.90;84.11;100035.63;5109140;28;20039;-71
2022/05/24 02:37:00;;;;;;;10.07;4.53;;;;;;;11.91;83.99;100031.91;5110376;28;20059;-66
2022/05/24 02:39:25;;;;;;;8.93;3.70;;;;;;;11.89;83.92;100038.47;5107933;28;20193;-68
2022/05/24 02:41:50;;;;;;;9.43;3.55;;;;;;;11.87;84.10;100046.78;5106238;28;20047;-68
2022/05/24 02:44:16;;;;;;;11.65;3.72;;;;;;;11.82;84.28;100038.19;5108511;28;20044;-71
2022/05/24 02:46:45;;;;;;;7.15;3.90;;;;;;;11.78;83.88;100046.75;5113479;28;20028;-71
2022/05/24 02:49:10;;;;;;;9.88;3.60;;;;;;;11.74;84.08;100035.25;5113827;28;20039;-72
2022/05/24 02:51:38;;;;;;;8.73;4.32;;;;;;;11.75;84.18;100039.72;5113171;27;20031;-65
2022/05/24 02:54:05;;;;;;;6.30;2.88;;;;;;;11.78;83.62;100047.59;5099454;28;20038;-65
2022/05/24 02:56:30;;;;;;;9.38;3.40;;;;;;;11.79;84.10;100043.00;5111503;28;20046;-71
2022/05/24 02:58:56;;;;;;;13.25;3.70;;;;;;;11.75;83.78;100045.16;5109229;28;20543;-66
2022/05/24 03:01:24;;;;;;;8.73;2.88;;;;;;;11.71;83.64;100032.81;5112789;28;20352;-71
2022/05/24 03:03:53;;;;;;;8.35;3.47;;;;;;;11.71;83.38;100030.94;5106432;28;20036;-71
2022/05/24 03:06:19;;;;;;;8.63;3.25;;;;;;;11.67;83.50;100024.06;5112666;28;20501;-66
2022/05/24 03:14:14;;;;;;;7.10;2.88;;;;;;;11.65;83.78;100038.81;5102197;28;20028;-71
2022/05/24 03:14:16;;;;;;;7.70;3.25;;;;;;;11.59;84.26;100037.50;5105008;28;20032;-65
2022/05/24 03:16:45;;;;;;;14.75;4.00;;;;;;;11.56;84.63;100040.47;5113667;28;20035;-71
2022/05/24 03:19:10;;;;;;;10.07;3.40;;;;;;;11.56;85.08;100031.44;5112182;28;20023;-66
2022/05/24 03:21:36;;;;;;;8.75;3.75;;;;;;;11.56;84.98;100037.75;5113500;28;20044;-71
2022/05/24 03:24:01;;;;;;;10.75;3.70;;;;;;;11.59;84.49;100036.63;5111944;28;20077;-66
2022/05/24 03:26:27;;;;;;;9.13;3.60;;;;;;;11.60;84.54;100047.38;5111158;28;20028;-66
2022/05/24 03:28:58;;;;;;;10.27;3.42;;;;;;;11.61;85.15;100048.25;5113870;28;20039;-71
2022/05/24 03:31:23;;;;;;;9.60;4.07;;;;;;;11.62;84.62;100045.41;5113347;28;20803;-72
2022/05/24 03:33:50;;;;;;;8.98;3.58;;;;;;;11.65;85.06;100055.16;5109807;28;20026;-66
2022/05/24 03:37:09;;;;;;;7.15;3.25;;;;;;;11.68;84.61;100054.88;5112227;28;20395;-66
2022/05/24 03:39:35;;;;;;;10.93;3.78;;;;;;;11.68;84.68;100052.16;5106559;28;20031;-72
2022/05/24 03:42:02;;;;;;;8.40;2.97;;;;;;;11.69;84.54;100051.16;5107111;28;20040;-69
2022/05/24 03:44:28;;;;;;;10.82;3.45;;;;;;;11.68;84.01;100052.16;5117520;27;20039;-67
2022/05/24 03:46:56;;;;;;;16.40;4.40;;;;;;;11.66;84.55;100052.31;5097084;28;20020;-66
2022/05/24 03:49:21;;;;;;;8.40;4.38;;;;;;;11.67;84.67;100047.72;5108996;28;20059;-70
2022/05/24 03:51:47;;;;;;;12.02;4.63;;;;;;;11.67;84.88;100048.56;5108148;28;20023;-70
2022/05/24 03:54:12;;;;;;;14.60;3.78;;;;;;;11.69;85.38;100051.16;5098362;28;20623;-66
2022/05/24 03:57:59;;;;;;;15.68;3.88;;;;;;;11.68;84.90;100065.78;5107465;28;20508;-72
2022/05/24 03:59:25;;;;;;;12.68;4.13;;;;;;;11.67;84.55;100080.41;5111072;28;20511;-71
2022/05/24 04:01:51;;;;;;;9.55;4.38;;;;;;;11.68;84.85;100080.25;5112624;28;20134;-71
2022/05/24 04:04:16;;;;;;;15.48;4.50;;;;;;;11.70;84.54;100077.38;5112527;28;20053;-72
2022/05/24 04:06:41;;;;;;;10.80;5.00;;;;;;;11.69;84.79;100092.88;5111746;28;20028;-71
2022/05/24 04:09:07;;;;;;;13.43;4.50;;;;;;;11.70;84.80;100104.63;5111564;28;20032;-67
2022/05/24 04:11:32;;;;;;;20.30;6.28;;;;;;;11.69;84.28;100109.22;5096360;28;20028;-66
2022/05/24 04:13:57;;;;;;;11.93;4.65;;;;;;;11.70;84.93;100107.38;5112641;28;20095;-66
2022/05/24 04:16:23;;;;;;;7.78;4.30;;;;;;;11.74;84.76;100112.41;5110242;28;20157;-65
2022/05/24 04:18:48;;;;;;;12.93;4.18;;;;;;;11.74;84.44;100112.41;5112233;28;20069;-65
2022/05/24 04:25:20;;;;;;;7.97;4.20;;;;;;;11.78;84.06;100085.75;5112046;28;20038;-66
2022/05/24 04:27:46;;;;;;;10.50;4.43;;;;;;;11.76;83.92;100068.69;5110269;28;20472;-67
2022/05/24 04:30:31;;;;;;;8.25;4.85;;;;;;;11.74;84.10;100073.41;5112015;28;20035;-69
2022/05/24 04:36:44;;;;;;;9.90;4.43;;;;;;;11.69;84.58;100090.16;5104153;28;20034;-71
2022/05/24 04:39:29;;;;;;;12.10;4.63;;;;;;;11.69;84.43;100120.13;5094989;28;20028;-69
2022/05/24 04:42:31;;;;;;;11.07;3.47;;;;;;;11.75;84.09;100133.22;5105196;28;20642;-66
2022/05/24 04:45:03;;;;;;;10.68;3.80;;;;;;;11.75;84.38;100126.91;5094922;28;20086;-65
2022/05/24 04:47:48;;;;;;;10.70;4.18;;;;;;;11.72;84.40;100106.25;5094211;28;20096;-67
2022/05/24 04:51:09;;;;;;;8.60;3.50;;;;;;;11.74;83.75;100106.09;5093252;28;20047;-71
2022/05/24 04:53:53;;;;;;;8.95;3.78;;;;;;;11.70;84.07;100118.25;5111280;28;20607;-68
2022/05/24 05:02:07;;;;;;;19.25;4.07;;;;;;;11.71;84.70;100136.38;5110626;28;20172;-70
2022/05/24 05:08:20;;;;;;;11.00;3.17;;;;;;;11.72;84.49;100160.75;5109172;28;20093;-65
2022/05/24 05:13:47;;;;;;;13.18;3.47;;;;;;;11.73;84.03;100165.19;5109072;28;20031;-72
2022/05/24 05:16:18;;;;;;;10.48;3.30;;;;;;;11.70;84.53;100170.03;5101519;28;20067;-71
2022/05/24 05:18:44;;;;;;;9.77;3.47;;;;;;;11.68;84.02;100178.34;5107202;28;20059;-65
2022/05/24 05:21:10;;;;;;;9.45;3.05;;;;;;;11.66;84.32;100177.63;5103615;28;20050;-68
2022/05/24 05:23:35;;;;;;;8.38;3.50;;;;;;;11.70;84.71;100175.47;5100083;28;20383;-72
2022/05/24 05:26:01;;;;;;;10.13;3.33;;;;;;;11.70;84.27;100168.19;5104252;28;20452;-70
2022/05/24 05:28:26;;;;;;;7.00;3.22;;;;;;;11.71;83.97;100156.28;5103767;28;20123;-71
2022/05/24 05:33:37;;;;;;;7.82;2.90;;;;;;;11.77;84.11;100173.97;5100865;28;20031;-67
2022/05/24 05:36:03;;;;;;;10.68;3.70;;;;;;;11.78;84.04;100170.22;5092425;28;20036;-67
2022/05/24 05:38:28;;;;;;;10.63;3.15;;;;;;;11.77;83.74;100159.47;5105384;28;20031;-67
2022/05/24 05:40:54;;;;;;;8.57;3.03;;;;;;;11.77;83.88;100154.88;5095895;28;20088;-71
2022/05/24 05:43:20;;;;;;;8.60;2.75;;;;;;;11.79;83.44;100157.47;5101971;28;20461;-70
2022/05/24 05:45:58;;;;;;;10.32;3.50;;;;;;;11.79;83.32;100157.47;5102259;28;20119;-66
2022/05/24 05:48:24;;;;;;;6.68;3.20;;;;;;;11.84;84.13;100161.53;5106194;28;20104;-71
2022/05/24 05:50:49;;;;;;;9.70;3.03;;;;;;;11.88;83.35;100163.00;5097167;28;20107;-71
2022/05/24 05:53:16;;;;;;;7.68;3.08;;;;;;;11.90;82.88;100177.38;5106452;28;20106;-71
2022/05/24 05:55:42;;;;;;;3.10;2.35;;;;;;;11.92;82.16;100185.41;5105837;28;20040;-67
2022/05/24 05:58:09;;;;;;;6.88;3.03;;;;;;;11.88;82.38;100190.25;5102951;28;20052;-71
2022/05/24 06:01:31;;;;;;;7.97;3.00;;;;;;;11.85;82.68;100195.13;5100339;28;20039;-67
2022/05/24 06:07:50;;;;;;;6.35;2.72;;;;;;;11.85;82.76;100217.78;5097019;28;20179;-65
2022/05/24 06:40:25;;;;;;;7.88;3.28;;;;;;;12.74;78.27;100212.53;5098842;28;20038;-69
2022/05/24 06:42:50;;;;;;;10.23;2.67;;;;;;;12.64;78.05;100230.75;5111049;28;20035;-65
2022/05/24 06:45:16;;;;;;;8.98;3.22;;;;;;;12.55;78.19;100234.31;5103863;28;20027;-72
2022/05/24 06:47:41;;;;;;;9.15;2.22;;;;;;;12.51;79.22;100231.00;5092787;28;20095;-70
2022/05/24 06:50:09;;;;;;;6.15;2.88;;;;;;;12.53;78.88;100226.25;5101136;28;20193;-70
2022/05/24 06:52:34;;;;;;;6.05;2.90;;;;;;;12.58;78.15;100244.94;5109737;28;20084;-71
2022/05/24 06:55:00;;;;;;;8.38;2.75;;;;;;;12.59;78.81;100257.56;5108240;28;20114;-71
2022/05/24 06:57:26;;;;;;;7.82;2.63;;;;;;;12.60;77.24;100254.72;5110547;28;20034;-66
2022/05/24 07:02:35;;;;;;;5.57;2.45;;;;;;;12.83;78.17;100259.97;5101425;28;20044;-71
2022/05/24 07:05:12;;;;;;;6.30;2.25;;;;;;;13.03;77.42;100259.00;5104183;28;20043;-66
2022/05/24 07:07:38;;;;;;;7.18;2.55;;;;;;;13.13;76.49;100267.19;5098162;28;20031;-67
2022/05/24 07:10:07;;;;;;;9.90;2.63;;;;;;;13.21;75.60;100267.34;5110895;28;20027;-71
2022/05/24 07:12:32;;;;;;;7.50;3.00;;;;;;;13.49;76.08;100282.06;5112504;28;20066;-66
2022/05/24 07:14:58;;;;;;;7.82;2.70;;;;;;;13.69;73.68;100278.31;5102645;28;20051;-66
2022/05/24 07:17:25;;;;;;;5.68;2.58;;;;;;;13.80;74.85;100282.75;5109123;28;20399;-67
2022/05/24 07:19:50;;;;;;;6.38;2.90;;;;;;;13.85;74.08;100280.47;5102333;28;20039;-71
2022/05/24 07:22:16;;;;;;;8.43;3.58;;;;;;;13.89;73.50;100283.75;5112303;28;20035;-70
2022/05/24 07:24:42;;;;;;;10.10;4.38;;;;;;;13.89;73.72;100279.13;5111785;28;20123;-67
2022/05/24 07:27:12;;;;;;;5.38;3.80;;;;;;;13.90;74.04;100290.97;5112495;28;20394;-66
2022/05/24 07:29:38;;;;;;;8.27;3.80;;;;;;;13.88;72.92;100290.22;5108095;28;20031;-67
2022/05/24 07:32:07;;;;;;;7.05;4.20;;;;;;;13.83;74.40;100298.88;5101554;28;20020;-65
2022/05/24 07:34:34;;;;;;;6.43;3.20;;;;;;;13.93;72.96;100291.50;5093391;28;20036;-66
2022/05/24 07:37:04;;;;;;;9.85;4.00;;;;;;;14.14;73.75;100298.69;5103190;28;20042;-66
2022/05/24 07:39:30;;;;;;;8.65;3.55;;;;;;;14.20;72.91;100301.69;5109542;28;20036;-67
2022/05/24 07:47:29;;;;;;;12.70;3.97;;;;;;;14.38;71.35;100306.41;5113370;28;20066;-72
2022/05/24 07:49:54;;;;;;;8.57;3.40;;;;;;;14.39;70.40;100305.38;5112793;27;20529;-66
2022/05/24 07:52:20;;;;;;;5.57;2.92;;;;;;;14.61;71.46;100298.72;5110919;28;20028;-71
2022/05/24 07:54:46;;;;;;;4.93;2.78;;;;;;;14.89;72.16;100302.31;5111048;27;20039;-71
2022/05/24 07:57:11;;;;;;;4.93;3.05;;;;;;;15.04;70.24;100298.03;5110679;28;20039;-71
2022/05/24 07:59:37;;;;;;;8.00;2.90;;;;;;;15.13;68.82;100304.50;5112614;28;20043;-70
2022/05/24 08:02:04;;;;;;;6.82;2.90;;;;;;;15.28;68.72;100311.16;5111363;28;20036;-70
2022/05/24 08:04:30;;;;;;;9.15;2.92;;;;;;;15.35;66.62;100294.97;5112818;28;20096;-71
2022/05/24 08:06:56;;;;;;;3.95;2.80;;;;;;;15.25;66.70;100312.34;5094963;28;20028;-71
2022/05/24 08:09:21;;;;;;;5.88;2.47;;;;;;;15.37;67.57;100318.44;5102733;28;20038;-67
2022/05/24 08:11:47;;;;;;;5.45;3.15;;;;;;;15.75;69.23;100316.47;5111512;27;20496;-65
2022/05/24 08:14:12;;;;;;;4.28;2.85;;;;;;;15.95;66.52;100319.91;5111357;28;20399;-71
2022/05/24 08:16:37;;;;;;;6.57;2.63;;;;;;;15.84;65.62;100318.25;5112580;28;20111;-66
2022/05/24 08:19:04;;;;;;;6.53;2.95;;;;;;;15.71;67.18;100315.03;5111206;28;20084;-67
2022/05/24 08:21:30;;;;;;;5.22;3.22;;;;;;;15.70;67.16;100313.31;5112884;28;20083;-66
2022/05/24 08:23:56;;;;;;;5.45;3.75;;;;;;;15.73;65.58;100324.00;5109995;28;20084;-71
2022/05/24 08:26:21;;;;;;;5.53;4.20;;;;;;;15.91;66.56;100335.81;5110699;28;20071;-66
2022/05/24 08:28:51;;;;;;;8.07;4.03;;;;;;;16.25;65.99;100344.16;5110777;28;20027;-67
2022/05/24 08:31:17;;;;;;;4.70;3.97;;;;;;;16.25;63.76;100344.16;5111617;28;20143;-69
2022/05/24 08:33:46;;;;;;;4.63;4.22;;;;;;;16.20;63.40;100348.41;5111463;28;20042;-66
2022/05/24 08:36:12;;;;;;;5.13;4.57;;;;;;;15.94;62.98;100353.81;5096994;28;20039;-67
2022/05/24 08:38:39;;;;;;;7.75;5.10;;;;;;;15.57;63.41;100355.69;5110548;28;20088;-66
2022/05/24 08:41:11;;;;;;;8.13;4.88;;;;;;;15.38;65.30;100350.31;5108522;28;20059;-70
2022/05/24 08:49:45;;;;;;;5.00;3.90;;;;;;;14.81;68.17;100374.28;5094894;28;20047;-70
2022/05/24 08:52:12;;;;;;;8.50;4.07;;;;;;;14.74;67.94;100376.78;5111655;28;20032;-67
2022/05/24 08:54:44;;;;;;;10.25;3.97;;;;;;;14.73;67.09;100391.44;5108612;28;20028;-70
2022/05/24 08:57:14;;;;;;;6.60;3.30;;;;;;;14.83;66.84;100379.59;5110563;28;20039;-65
2022/05/24 08:59:47;;;;;;;7.53;3.50;;;;;;;14.98;68.68;100383.59;5111723;28;20395;-65
2022/05/24 09:02:12;;;;;;;5.20;3.67;;;;;;;15.11;66.22;100388.69;5109154;28;20028;-70
2022/05/24 09:04:38;;;;;;;6.38;3.55;;;;;;;15.13;64.47;100387.53;5108077;28;20047;-70
2022/05/24 09:07:14;;;;;;;4.25;2.90;;;;;;;15.11;65.93;100399.66;5109075;28;20028;-67
2022/05/24 09:10:10;;;;;;;4.45;3.28;;;;;;;15.01;65.65;100411.56;5107871;28;20031;-66
2022/05/24 09:13:08;;;;;;;6.65;2.85;;;;;;;14.86;65.71;100410.28;5108087;28;20088;-70
2022/05/24 09:15:53;;;;;;;3.20;2.35;;;;;;;14.68;67.56;100406.59;5111233;28;20111;-70
2022/05/24 09:18:38;;;;;;;4.93;2.70;;;;;;;14.84;68.75;100419.69;5110108;28;20040;-67
2022/05/24 09:21:03;;;;;;;3.97;2.90;;;;;;;15.05;67.43;100421.16;5098808;28;20074;-67
2022/05/24 09:23:35;;;;;;;6.45;3.67;;;;;;;15.23;68.66;100432.19;5092071;28;20066;-70
2022/05/24 09:26:03;;;;;;;5.07;3.80;;;;;;;15.48;67.46;100424.28;5106000;28;20035;-68
2022/05/24 09:28:44;;;;;;;5.38;3.70;;;;;;;15.71;65.79;100430.22;5102531;28;20462;-65
2022/05/24 09:31:17;;;;;;;4.90;3.92;;;;;;;15.81;65.28;100428.31;5097813;28;20120;-70
2022/05/24 09:33:44;;;;;;;5.10;4.60;;;;;;;15.74;63.48;100433.53;5110008;28;20038;-66
2022/05/24 09:36:22;;;;;;;4.75;4.22;;;;;;;15.57;63.60;100432.47;5111094;28;20036;-66
2022/05/24 09:38:48;;;;;;;5.18;3.90;;;;;;;15.35;63.90;100437.50;5108600;28;20036;-69
2022/05/24 09:41:16;;;;;;;5.07;4.40;;;;;;;15.23;65.70;100453.25;5107710;28;20095;-70
2022/05/24 09:43:43;;;;;;;5.30;4.00;;;;;;;15.15;65.85;100454.00;5110773;28;20068;-70
2022/05/24 09:46:36;;;;;;;4.78;4.38;;;;;;;15.32;65.53;100466.94;5110023;28;20114;-66
2022/05/24 09:49:31;;;;;;;5.97;4.22;;;;;;;15.66;65.76;100460.00;5109484;28;20051;-69
2022/05/24 09:52:11;;;;;;;9.25;5.18;;;;;;;16.22;66.04;100453.38;5100828;28;20030;-70
2022/05/24 09:54:59;;;;;;;7.00;5.32;;;;;;;16.58;64.96;100440.50;5106799;28;20543;-70
2022/05/24 09:57:30;;;;;;;7.05;6.18;;;;;;;16.75;62.47;100455.25;5109481;28;20114;-65
2022/05/24 10:00:07;;;;;;;7.32;6.63;;;;;;;17.00;64.44;100457.13;5109659;28;20042;-66
2022/05/24 10:02:34;;;;;;;8.02;6.45;;;;;;;17.39;60.03;100461.28;5110434;28;20031;-70
2022/05/24 10:05:03;;;;;;;7.07;6.38;;;;;;;17.63;59.47;100433.03;5109194;28;20032;-70
2022/05/24 10:07:34;;;;;;;6.30;5.65;;;;;;;17.71;57.17;100444.03;5105260;28;20074;-66
2022/05/24 10:10:14;;;;;;;7.68;5.68;;;;;;;17.55;58.17;100445.72;5108751;28;20486;-70
2022/05/24 10:12:57;;;;;;;5.93;5.43;;;;;;;17.33;58.24;100454.56;5109497;28;20036;-70
2022/05/24 10:15:33;;;;;;;6.57;5.97;;;;;;;17.18;58.27;100470.81;5110510;28;20040;-66
2022/05/24 10:18:24;;;;;;;7.63;5.25;;;;;;;17.01;60.22;100469.84;5110909;28;20623;-70
2022/05/24 10:21:05;;;;;;;7.15;4.93;;;;;;;16.82;58.75;100468.16;5109088;28;20036;-66
2022/05/24 10:23:46;;;;;;;6.25;4.72;;;;;;;16.57;58.79;100471.72;5109521;28;20043;-70
2022/05/24 10:26:41;;;;;;;6.78;5.80;;;;;;;16.44;60.89;100471.28;5107340;28;20513;-66
2022/05/24 10:29:26;;;;;;;5.80;5.28;;;;;;;16.38;61.16;100481.00;5110298;28;20066;-66
2022/05/24 10:32:03;;;;;;;5.78;5.22;;;;;;;16.36;62.71;100490.41;5109317;28;20063;-66
2022/05/24 10:38:18;;;;;;;6.22;4.80;;;;;;;16.27;61.36;100495.84;5109039;28;20031;-65
2022/05/24 10:41:00;;;;;;;6.07;4.32;;;;;;;16.43;62.38;100499.75;5102392;28;20047;-69
2022/05/24 10:43:40;;;;;;;4.55;4.03;;;;;;;16.70;61.31;100504.28;5109051;28;20035;-71
2022/05/24 10:46:14;;;;;;;3.97;2.38;;;;;;;16.58;60.16;100507.25;5110200;28;20130;-69
2022/05/24 10:48:58;;;;;;;3.83;2.28;;;;;;;16.43;61.30;100506.09;5109030;28;20085;-70
2022/05/24 10:51:32;;;;;;;2.65;2.30;;;;;;;16.36;60.49;100509.63;5110216;28;20471;-70
2022/05/24 10:54:03;;;;;;;5.00;2.40;;;;;;;16.32;61.95;100496.22;5108274;28;20041;-69
2022/05/24 10:56:49;;;;;;;4.22;2.58;;;;;;;16.66;60.89;100495.50;5108785;28;20054;-70
2022/05/24 10:59:23;;;;;;;5.03;2.22;;;;;;;17.16;63.34;100493.97;5109988;28;20532;-66
2022/05/24 11:02:11;;;;;;;4.30;2.28;;;;;;;17.19;62.13;100500.03;5109955;28;20028;-70
2022/05/24 11:04:58;;;;;;;4.20;2.70;;;;;;;17.08;61.25;100494.81;5108658;28;20057;-69
2022/05/24 11:07:26;;;;;;;4.50;2.65;;;;;;;17.00;60.65;100506.59;5098536;28;20035;-69
2022/05/24 11:10:05;;;;;;;5.70;2.63;;;;;;;17.07;63.51;100502.19;5097630;28;20035;-70
2022/05/24 11:12:36;;;;;;;4.50;2.72;;;;;;;17.46;63.77;100498.13;5109649;28;20032;-67
2022/05/24 11:15:18;;;;;;;3.25;2.70;;;;;;;18.04;62.59;100497.31;5112186;28;20046;-67
2022/05/24 11:17:44;;;;;;;5.78;3.17;;;;;;;18.50;61.09;100489.47;5113721;28;20027;-70
2022/05/24 11:20:11;;;;;;;3.28;3.00;;;;;;;18.96;58.32;100487.94;5112603;28;20059;-69
2022/05/24 11:23:02;;;;;;;4.28;3.05;;;;;;;19.35;57.23;100485.28;5112315;28;20028;-70
2022/05/24 11:25:40;;;;;;;3.65;3.22;;;;;;;19.82;55.63;100497.41;5110857;28;20054;-70
2022/05/24 11:28:17;;;;;;;4.40;2.78;;;;;;;20.16;54.65;100485.97;5102989;28;20054;-65
2022/05/24 11:30:42;;;;;;;3.75;2.60;;;;;;;20.11;51.31;100469.97;5113327;28;20027;-70
2022/05/24 11:33:13;;;;;;;3.60;2.75;;;;;;;19.80;52.16;100500.31;5112345;28;20027;-69
2022/05/24 11:35:43;;;;;;;3.97;3.08;;;;;;;19.50;50.10;100501.13;5112010;28;20035;-67
2022/05/24 11:38:23;;;;;;;4.45;3.10;;;;;;;19.41;53.30;100508.56;5107449;28;20070;-67
2022/05/24 11:40:54;;;;;;;4.07;3.67;;;;;;;19.78;54.37;100513.44;5106313;28;20028;-69
2022/05/24 11:43:34;;;;;;;3.72;3.38;;;;;;;20.23;54.08;100511.81;5113295;28;20498;-66
2022/05/24 11:46:08;;;;;;;5.65;4.15;;;;;;;20.58;53.65;100509.56;5112253;28;20043;-66
2022/05/24 11:48:39;;;;;;;4.50;4.15;;;;;;;20.79;52.82;100509.72;5112712;28;20502;-64
2022/05/24 11:51:32;;;;;;;6.80;3.90;;;;;;;21.08;50.59;100508.94;5113079;28;20035;-70
2022/05/24 11:54:00;;;;;;;4.72;4.20;;;;;;;21.04;48.18;100517.81;5101142;28;20043;-69
2022/05/24 11:56:25;;;;;;;3.75;3.38;;;;;;;21.31;49.86;100519.09;5110300;28;20479;-69
2022/05/24 11:59:00;;;;;;;3.67;3.42;;;;;;;21.41;51.04;100533.56;5112903;28;20096;-70
2022/05/24 12:01:37;;;;;;;3.90;3.50;;;;;;;21.76;48.39;100523.59;5112776;27;20383;-68
2022/05/24 12:10:19;;;;;;;4.20;3.05;;;;;;;21.20;47.97;100528.69;5105552;28;20032;-68
2022/05/24 12:13:02;;;;;;;3.47;3.03;;;;;;;20.98;48.02;100535.97;5111510;28;20517;-65
2022/05/24 12:15:30;;;;;;;3.72;2.30;;;;;;;20.65;47.13;100538.16;5111698;28;20063;-65
2022/05/24 12:17:59;;;;;;;2.28;1.98;;;;;;;20.36;46.15;100538.84;5110696;28;20062;-70
2022/05/24 12:20:33;;;;;;;2.85;1.90;;;;;;;20.07;47.30;100551.44;5112354;28;20055;-64
2022/05/24 12:23:04;;;;;;;3.38;2.25;;;;;;;19.82;48.56;100558.13;5110459;28;20043;-69
2022/05/24 12:25:52;;;;;;;2.17;1.70;;;;;;;19.72;50.65;100566.59;5110329;28;20148;-70
2022/05/24 12:28:20;;;;;;;2.20;2.00;;;;;;;19.61;48.62;100570.59;5099572;28;20139;-66
2022/05/24 12:30:48;;;;;;;4.15;2.30;;;;;;;19.56;49.15;100569.38;5111398;28;20022;-65
2022/05/24 12:33:23;;;;;;;2.22;2.03;;;;;;;19.18;51.13;100573.75;5111979;28;20047;-69
2022/05/24 12:36:08;;;;;;;4.97;1.75;;;;;;;19.00;50.14;100584.97;5110941;27;20103;-64
2022/05/24 12:38:36;;;;;;;1.98;1.73;;;;;;;18.77;49.54;100601.31;5110795;28;20031;-69
2022/05/24 12:41:13;;;;;;;2.85;1.60;;;;;;;18.61;49.31;100602.13;5108942;28;20386;-69
2022/05/24 12:43:52;;;;;;;4.47;1.38;;;;;;;18.62;51.25;100606.59;5112084;28;20063;-65
2022/05/24 12:46:17;;;;;;;2.25;0.90;;;;;;;18.99;51.71;100611.69;5111910;28;20051;-64
2022/05/24 12:48:43;;;;;;;2.05;1.10;;;;;;;19.26;50.23;100609.63;5110441;28;20035;-65
2022/05/24 12:51:11;;;;;;;3.20;0.80;;;;;;;19.34;46.92;100596.66;5111811;28;20035;-69
2022/05/24 12:53:37;;;;;;;0.70;0.70;;;;;;;19.65;48.64;100607.00;5110569;28;20038;-65
2022/05/24 12:56:08;;;;;;;0.95;0.75;;;;;;;19.62;47.67;100607.34;5108564;28;20109;-69
2022/05/24 12:58:46;;;;;;;1.73;0.85;;;;;;;19.67;45.69;100610.44;5099964;28;20042;-65
2022/05/24 13:01:18;;;;;;;2.85;0.80;;;;;;;19.44;47.35;100610.25;5111595;28;20046;-69
2022/05/24 13:04:14;;;;;;;2.78;0.82;;;;;;;19.40;47.94;100611.69;5110502;28;20032;-64
2022/05/24 13:06:51;;;;;;;1.85;1.10;;;;;;;19.34;47.17;100618.72;5108838;28;20040;-65
2022/05/24 13:09:20;;;;;;;1.67;1.00;;;;;;;19.49;49.21;100616.16;5108527;28;20042;-70
2022/05/24 13:11:53;;;;;;;4.50;1.20;;;;;;;19.88;48.72;100618.16;5110146;27;20031;-68